Time;durP1;ratioP1;P1;durP2;ratioP2;P2;SDS_P1;SDS_P2;PMS_P1;PMS_P2;Temp;Humidity;BMP_temperature;BMP_pressure;BME280_temperature;BME280_humidity;BME280_pressure;Samples;Min_cycle;Max_cycle;Signal;HPM_P1;HPM_P2
2023/06/21 00:01:45;;;;;;;1999.90;999.90;;;;;;;23.65;77.18;97854.47;4973666;28;20027;-75
2023/06/21 00:04:10;;;;;;;1999.90;999.90;;;;;;;23.61;77.71;97852.84;4973761;28;20038;-76
2023/06/21 00:06:38;;;;;;;1999.90;999.90;;;;;;;23.53;77.95;97853.94;4956382;28;20037;-76
2023/06/21 00:09:03;;;;;;;1999.90;999.90;;;;;;;23.38;78.99;97845.38;4973920;28;20031;-75
2023/06/21 00:11:29;;;;;;;1999.90;999.90;;;;;;;23.44;79.50;97848.66;4973853;28;20023;-76
2023/06/21 00:13:55;;;;;;;1999.90;999.90;;;;;;;23.43;79.63;97839.47;4974000;28;20026;-77
2023/06/21 00:16:24;;;;;;;1999.90;999.90;;;;;;;23.32;79.80;97834.94;4973331;28;20062;-76
2023/06/21 00:18:49;;;;;;;1999.90;999.90;;;;;;;23.31;80.04;97844.50;4973645;28;20062;-76
2023/06/21 00:21:15;;;;;;;1999.90;999.90;;;;;;;23.25;80.86;97841.25;4955956;28;20084;-76
2023/06/21 00:23:43;;;;;;;1999.90;999.90;;;;;;;23.25;80.61;97834.84;4956018;28;20038;-78
2023/06/21 00:26:09;;;;;;;1999.90;999.90;;;;;;;23.22;80.54;97833.63;4973234;28;20034;-78
2023/06/21 00:28:34;;;;;;;1999.90;999.90;;;;;;;23.17;80.26;97811.66;4973317;28;20023;-76
2023/06/21 00:30:59;;;;;;;1999.90;999.90;;;;;;;23.22;80.66;97830.84;4973087;28;20085;-76
2023/06/21 00:33:25;;;;;;;1999.90;999.90;;;;;;;23.18;80.98;97830.00;4956126;28;20488;-78
2023/06/21 00:35:51;;;;;;;1999.90;999.90;;;;;;;23.16;81.67;97834.34;4973031;28;20500;-78
2023/06/21 00:38:16;;;;;;;1999.90;999.90;;;;;;;23.02;81.83;97823.84;4973196;28;20659;-78
2023/06/21 00:40:42;;;;;;;1999.90;999.90;;;;;;;22.98;82.71;97824.97;4955735;28;20392;-78
2023/06/21 00:43:07;;;;;;;1999.90;999.90;;;;;;;23.03;82.06;97811.47;4972939;28;20054;-78
2023/06/21 00:45:40;;;;;;;1999.90;999.90;;;;;;;22.99;82.07;97807.06;4955968;28;20035;-78
2023/06/21 00:48:06;;;;;;;1999.90;999.90;;;;;;;22.92;82.50;97807.75;4955725;28;20079;-79
2023/06/21 00:50:31;;;;;;;1999.90;999.90;;;;;;;22.86;83.70;97835.19;4972779;28;20492;-78
2023/06/21 00:52:57;;;;;;;1999.90;999.90;;;;;;;22.82;84.00;97834.34;4973182;28;20069;-79
2023/06/21 00:55:23;;;;;;;1999.90;999.90;;;;;;;22.79;84.52;97837.09;4977860;28;20026;-79
2023/06/21 00:57:49;;;;;;;1999.90;999.90;;;;;;;22.84;84.78;97853.47;4980093;28;20019;-79
2023/06/21 01:00:20;;;;;;;1999.90;999.90;;;;;;;22.91;84.64;97853.56;4959568;28;20383;-77
2023/06/21 01:02:46;;;;;;;1999.90;999.90;;;;;;;22.88;84.58;97832.00;4973034;28;20439;-79
2023/06/21 01:05:12;;;;;;;1999.90;999.90;;;;;;;23.02;84.62;97851.75;4972692;28;20431;-77
2023/06/21 01:08:00;;;;;;;1999.90;999.90;;;;;;;23.00;84.78;97850.50;4972936;28;20031;-75
2023/06/21 01:10:46;;;;;;;1999.90;999.90;;;;;;;22.80;86.43;97850.66;4972784;28;20193;-77
2023/06/21 01:13:19;;;;;;;1999.90;999.90;;;;;;;22.67;87.89;97842.91;4990892;28;20022;-75
2023/06/21 01:15:52;;;;;;;1999.90;999.90;;;;;;;22.63;88.76;97853.16;4992142;28;20165;-76
2023/06/21 01:18:22;;;;;;;1999.90;999.90;;;;;;;22.68;88.57;97855.66;4991903;28;20018;-77
2023/06/21 01:20:53;;;;;;;1999.90;999.90;;;;;;;22.65;89.22;97851.63;4991653;28;20503;-76
2023/06/21 01:23:38;;;;;;;1999.90;999.90;;;;;;;22.66;90.16;97839.28;4998996;28;20076;-77
2023/06/21 01:26:11;;;;;;;1999.90;999.90;;;;;;;22.75;89.66;97858.53;4976782;28;20125;-75
2023/06/21 01:28:58;;;;;;;1999.90;999.90;;;;;;;22.85;88.94;97855.91;4991500;28;20021;-76
2023/06/21 01:31:25;;;;;;;1999.90;999.90;;;;;;;22.90;88.41;97851.97;4973974;28;20046;-76
2023/06/21 01:33:51;;;;;;;1999.90;999.90;;;;;;;22.85;88.91;97844.75;4991775;28;20037;-76
2023/06/21 01:36:17;;;;;;;1999.90;999.90;;;;;;;22.88;89.08;97843.19;4991528;28;20132;-77
2023/06/21 01:38:44;;;;;;;1999.90;999.90;;;;;;;22.92;88.98;97849.63;4991495;28;20540;-78
2023/06/21 01:41:12;;;;;;;1999.90;999.90;;;;;;;22.97;89.51;97862.41;4991576;28;20146;-77
2023/06/21 01:43:38;;;;;;;1999.90;999.90;;;;;;;22.94;89.44;97864.78;4973056;28;20400;-78
2023/06/21 01:46:06;;;;;;;1999.90;999.90;;;;;;;22.93;89.64;97862.38;4974358;28;20058;-77
2023/06/21 01:48:34;;;;;;;1999.90;999.90;;;;;;;22.87;89.81;97856.31;4957795;28;20080;-76
2023/06/21 01:51:02;;;;;;;1999.90;999.90;;;;;;;22.89;89.70;97858.75;4991323;28;20023;-78
2023/06/21 01:53:29;;;;;;;1999.90;999.90;;;;;;;22.77;90.43;97843.03;4974018;28;20040;-78
2023/06/21 01:55:56;;;;;;;1999.90;999.90;;;;;;;22.75;90.64;97848.19;4991171;28;20022;-79
2023/06/21 01:58:22;;;;;;;1999.90;999.90;;;;;;;22.59;91.61;97835.56;4991154;28;20530;-77
2023/06/21 02:00:48;;;;;;;1999.90;999.90;;;;;;;22.53;92.14;97828.72;4991330;28;20034;-78
2023/06/21 02:03:16;;;;;;;1999.90;999.90;;;;;;;22.55;91.91;97820.78;4991073;28;20141;-78
2023/06/21 02:05:43;;;;;;;1999.90;999.90;;;;;;;22.57;91.30;97827.59;4990891;28;20027;-78
2023/06/21 02:08:15;;;;;;;1999.90;999.90;;;;;;;22.62;90.86;97837.59;4990816;28;20476;-77
2023/06/21 02:10:42;;;;;;;1999.90;999.90;;;;;;;22.62;89.74;97840.38;4990780;28;20030;-78
2023/06/21 02:13:08;;;;;;;1999.90;999.90;;;;;;;22.68;88.66;97836.16;4991107;28;20023;-78
2023/06/21 02:15:34;;;;;;;1999.90;999.90;;;;;;;22.62;89.47;97845.97;4974025;28;20102;-78
2023/06/21 02:17:59;;;;;;;1999.90;999.90;;;;;;;22.70;89.33;97854.09;4991438;28;20037;-78
2023/06/21 02:20:24;;;;;;;1999.90;999.90;;;;;;;22.76;88.24;97851.78;4991027;28;20027;-79
2023/06/21 02:22:50;;;;;;;1999.90;999.90;;;;;;;22.78;88.11;97849.41;4990909;28;20041;-79
2023/06/21 02:25:16;;;;;;;1999.90;999.90;;;;;;;22.78;87.94;97849.41;4990995;28;20058;-77
2023/06/21 02:27:42;;;;;;;1999.90;999.90;;;;;;;22.79;88.33;97840.69;4990912;28;20022;-78
2023/06/21 02:30:08;;;;;;;1999.90;999.90;;;;;;;22.83;87.45;97840.72;4990933;28;20031;-77
2023/06/21 02:32:34;;;;;;;1999.90;999.90;;;;;;;22.72;88.16;97839.75;4990860;28;20038;-80
2023/06/21 02:34:59;;;;;;;1999.90;999.90;;;;;;;22.69;88.02;97841.34;4973783;28;20022;-78
2023/06/21 02:37:28;;;;;;;1999.90;999.90;;;;;;;22.69;88.33;97851.69;4990923;28;20459;-77
2023/06/21 02:39:54;;;;;;;1999.90;999.90;;;;;;;22.72;88.31;97856.50;4973421;28;20026;-77
2023/06/21 02:42:19;;;;;;;1999.90;999.90;;;;;;;22.66;89.29;97858.00;4973540;28;20096;-78
2023/06/21 02:44:44;;;;;;;1999.90;999.90;;;;;;;22.57;89.90;97861.06;4991291;28;20479;-77
2023/06/21 02:47:09;;;;;;;1999.90;999.90;;;;;;;22.55;90.43;97857.03;4977465;28;20026;-79
2023/06/21 02:49:36;;;;;;;1999.90;999.90;;;;;;;22.58;90.92;97873.03;4990939;28;20392;-77
2023/06/21 02:52:05;;;;;;;1999.90;999.90;;;;;;;22.48;91.48;97868.09;4990931;28;20664;-77
2023/06/21 02:54:31;;;;;;;1999.90;999.90;;;;;;;22.46;92.02;97870.44;4992035;28;20037;-77
2023/06/21 02:56:56;;;;;;;1999.90;999.90;;;;;;;22.42;92.71;97876.78;4994456;28;20388;-78
2023/06/21 02:59:22;;;;;;;1999.90;999.90;;;;;;;22.42;93.46;97875.97;4994211;28;20034;-77
2023/06/21 03:01:48;;;;;;;1999.90;999.90;;;;;;;22.31;94.09;97881.38;4994535;28;20026;-79
2023/06/21 03:04:16;;;;;;;1999.90;999.90;;;;;;;22.26;95.34;97884.47;4994099;28;20030;-77
2023/06/21 03:06:42;;;;;;;1999.90;999.90;;;;;;;22.13;95.77;97874.69;4994454;28;20511;-77
2023/06/21 03:09:08;;;;;;;1999.90;999.90;;;;;;;22.16;96.57;97884.28;4976625;28;20033;-78
2023/06/21 03:11:34;;;;;;;1999.90;999.90;;;;;;;22.16;97.33;97890.69;4994354;28;20023;-79
2023/06/21 03:13:59;;;;;;;1999.90;999.90;;;;;;;22.13;97.28;97877.50;4981062;28;20027;-77
2023/06/21 03:16:24;;;;;;;1999.90;999.90;;;;;;;22.16;97.40;97884.28;4981976;28;20019;-78
2023/06/21 03:18:50;;;;;;;1999.90;999.90;;;;;;;22.22;97.54;97889.19;4995511;28;20125;-76
2023/06/21 03:21:15;;;;;;;1999.90;999.90;;;;;;;22.11;98.36;97881.84;4976743;28;20026;-76
2023/06/21 03:23:41;;;;;;;1999.90;999.90;;;;;;;22.09;99.26;97879.41;4976431;28;20030;-79
2023/06/21 03:26:06;;;;;;;1999.90;999.90;;;;;;;22.09;100.00;97882.19;4994116;28;20035;-79
2023/06/21 03:28:31;;;;;;;1999.90;999.90;;;;;;;22.08;100.00;97883.38;4994142;28;20022;-79
2023/06/21 03:30:57;;;;;;;1999.90;999.90;;;;;;;22.03;100.00;97886.47;4994134;28;20037;-77
2023/06/21 03:33:23;;;;;;;1999.90;999.90;;;;;;;22.06;100.00;97891.28;4982055;28;20026;-79
2023/06/21 03:35:49;;;;;;;1999.90;999.90;;;;;;;22.09;100.00;97881.38;5000889;28;20131;-78
2023/06/21 03:38:14;;;;;;;1999.90;999.90;;;;;;;22.01;100.00;97888.84;4976187;28;20121;-78
2023/06/21 03:40:40;;;;;;;1999.90;999.90;;;;;;;21.95;100.00;97879.19;4976319;28;20032;-77
2023/06/21 03:43:05;;;;;;;1999.90;999.90;;;;;;;21.94;100.00;97885.09;4993650;28;20384;-79
2023/06/21 03:45:30;;;;;;;1999.90;999.90;;;;;;;21.90;100.00;97887.81;4976636;28;20495;-78
2023/06/21 03:47:55;;;;;;;1999.90;999.90;;;;;;;21.90;100.00;97887.81;4976074;28;20384;-77
2023/06/21 03:50:21;;;;;;;1999.90;999.90;;;;;;;21.90;100.00;97890.59;4993724;28;20474;-75
2023/06/21 03:52:46;;;;;;;1999.90;999.90;;;;;;;21.84;100.00;97880.91;4989456;28;20107;-73
2023/06/21 03:55:11;;;;;;;1999.90;999.90;;;;;;;21.95;100.00;97907.03;4978399;28;20045;-72
2023/06/21 03:57:38;;;;;;;1999.90;999.90;;;;;;;21.94;100.00;97910.19;4993051;28;20023;-74
2023/06/21 04:00:06;;;;;;;1999.90;999.90;;;;;;;21.87;100.00;97916.38;4980509;28;20405;-76
2023/06/21 04:02:32;;;;;;;1999.90;999.90;;;;;;;21.83;100.00;97924.69;4973413;28;20388;-74
2023/06/21 04:04:58;;;;;;;1999.90;999.90;;;;;;;21.81;100.00;97917.88;4973505;28;20065;-74
2023/06/21 04:07:23;;;;;;;1999.90;999.90;;;;;;;21.81;100.00;97932.59;4972613;28;20117;-74
2023/06/21 04:09:49;;;;;;;1999.90;999.90;;;;;;;21.74;100.00;97934.47;4973360;28;20035;-74
2023/06/21 04:12:15;;;;;;;1999.90;999.90;;;;;;;21.83;100.00;97930.25;4985469;28;20030;-74
2023/06/21 04:14:40;;;;;;;1999.90;999.90;;;;;;;21.94;100.00;97938.84;4993027;28;21431;-74
2023/06/21 04:17:06;;;;;;;1999.90;999.90;;;;;;;21.97;100.00;97938.09;4993594;28;20105;-74
2023/06/21 04:19:31;;;;;;;1999.90;999.90;;;;;;;22.06;100.00;97944.25;4992846;28;20041;-75
2023/06/21 04:21:57;;;;;;;1999.90;999.90;;;;;;;22.14;100.00;97936.81;4992696;28;20037;-75
2023/06/21 04:24:22;;;;;;;1999.90;999.90;;;;;;;22.15;100.00;97932.84;4993446;28;20475;-74
2023/06/21 04:26:50;;;;;;;1999.90;999.90;;;;;;;22.22;100.00;97938.53;4993335;28;20436;-74
2023/06/21 04:29:20;;;;;;;1999.90;999.90;;;;;;;22.35;100.00;97926.84;4992410;28;20026;-74
2023/06/21 04:31:45;;;;;;;1999.90;999.90;;;;;;;22.49;100.00;97931.81;4992560;28;20080;-75
2023/06/21 04:34:11;;;;;;;1999.90;999.90;;;;;;;22.60;100.00;97938.38;4976198;28;20054;-74
2023/06/21 04:36:37;;;;;;;1999.90;999.90;;;;;;;22.67;100.00;97938.53;4991821;28;20488;-74
2023/06/21 04:39:03;;;;;;;1999.90;999.90;;;;;;;22.70;100.00;97929.41;5000661;28;20037;-83
2023/06/21 04:41:28;;;;;;;1999.90;999.90;;;;;;;22.76;100.00;97939.06;4987415;28;20403;-77
2023/06/21 04:43:54;;;;;;;1999.90;999.90;;;;;;;22.76;100.00;97936.28;4994286;28;20037;-80
2023/06/21 04:46:27;;;;;;;1999.90;999.90;;;;;;;22.85;100.00;97944.38;4977295;28;20029;-83
2023/06/21 04:49:08;;;;;;;1999.90;999.90;;;;;;;22.94;100.00;97956.06;4984872;28;20096;-85
2023/06/21 04:51:33;;;;;;;1999.90;999.90;;;;;;;22.97;100.00;97955.31;4958522;28;20027;-75
2023/06/21 04:53:59;;;;;;;1999.90;999.90;;;;;;;23.08;100.00;97952.69;4976644;28;20061;-76
2023/06/21 04:56:26;;;;;;;1999.90;999.90;;;;;;;23.10;100.00;97955.88;4970341;28;20034;-77
2023/06/21 04:58:52;;;;;;;1999.90;999.90;;;;;;;23.22;100.00;97950.88;4970153;28;20050;-76
2023/06/21 05:01:17;;;;;;;1999.90;999.90;;;;;;;23.26;100.00;97940.56;4970179;28;20042;-76
2023/06/21 05:03:48;;;;;;;1999.90;999.90;;;;;;;23.32;100.00;97955.81;4969866;28;20096;-75
2023/06/21 05:06:17;;;;;;;1999.90;999.90;;;;;;;23.42;100.00;97957.97;4953859;28;20093;-76
2023/06/21 05:08:42;;;;;;;1999.90;999.90;;;;;;;23.50;100.00;97958.84;4953957;28;20054;-75
2023/06/21 05:11:08;;;;;;;1999.90;999.90;;;;;;;23.56;100.00;97960.13;4967786;28;20043;-81
2023/06/21 05:13:33;;;;;;;1999.90;999.90;;;;;;;23.52;100.00;97964.06;4948487;28;20051;-78
2023/06/21 05:15:58;;;;;;;1999.90;999.90;;;;;;;23.70;100.00;97965.88;4980539;28;20065;-78
2023/06/21 05:18:24;;;;;;;1999.90;999.90;;;;;;;23.87;100.00;97967.28;4974193;28;20129;-74
2023/06/21 05:20:49;;;;;;;1999.90;999.90;;;;;;;23.95;100.00;97972.56;4989873;28;20129;-79
2023/06/21 05:23:15;;;;;;;1999.90;999.90;;;;;;;24.01;100.00;97964.63;4992410;28;20038;-77
2023/06/21 05:25:40;;;;;;;1999.90;999.90;;;;;;;24.17;100.00;97976.41;4975046;28;20109;-75
2023/06/21 05:28:05;;;;;;;1999.90;999.90;;;;;;;24.29;100.00;97973.34;4988455;28;20089;-75
2023/06/21 05:30:31;;;;;;;1999.90;999.90;;;;;;;24.41;100.00;97975.84;4984764;28;20480;-78
2023/06/21 05:32:56;;;;;;;1999.90;999.90;;;;;;;24.55;100.00;97979.97;4994133;28;20026;-78
2023/06/21 05:35:21;;;;;;;1999.90;999.90;;;;;;;24.67;100.00;97963.69;4996056;28;20026;-75
2023/06/21 05:37:47;;;;;;;1999.90;999.90;;;;;;;24.80;100.00;97970.56;4993385;28;20042;-75
2023/06/21 05:40:12;;;;;;;1999.90;999.90;;;;;;;24.90;99.61;97975.47;4991572;28;20034;-76
2023/06/21 05:42:37;;;;;;;1999.90;999.90;;;;;;;25.00;99.51;97957.94;4991955;28;20065;-75
2023/06/21 05:45:05;;;;;;;1999.90;999.90;;;;;;;25.10;96.69;97964.81;4997079;28;20033;-75
2023/06/21 05:47:31;;;;;;;1999.90;999.90;;;;;;;25.14;95.94;97971.22;4978040;28;20034;-78
2023/06/21 05:49:56;;;;;;;1999.90;999.90;;;;;;;25.19;96.52;97970.84;5010716;28;20010;-77
2023/06/21 05:52:21;;;;;;;1999.90;999.90;;;;;;;25.29;96.18;97964.50;4995402;28;20034;-76
2023/06/21 05:54:47;;;;;;;1999.90;999.90;;;;;;;25.41;92.93;97961.38;5012755;28;20014;-79
2023/06/21 05:57:12;;;;;;;1999.90;999.90;;;;;;;25.49;90.52;97962.25;5012421;28;20018;-79
2023/06/21 05:59:38;;;;;;;1999.90;999.90;;;;;;;25.61;92.07;97970.31;4994883;28;20027;-79
2023/06/21 06:02:05;;;;;;;1999.90;999.90;;;;;;;25.68;91.80;97967.53;4972018;28;20022;-78
2023/06/21 06:04:30;;;;;;;1999.90;999.90;;;;;;;25.77;88.43;97970.78;4979196;28;20069;-77
2023/06/21 06:06:56;;;;;;;1999.90;999.90;;;;;;;25.87;88.02;97980.41;4987179;28;20058;-75
2023/06/21 06:09:23;;;;;;;1999.90;999.90;;;;;;;25.98;84.34;97978.44;4987804;28;20034;-75
2023/06/21 06:11:49;;;;;;;1999.90;999.90;;;;;;;26.06;83.32;97969.63;4988797;28;20381;-78
2023/06/21 06:14:15;;;;;;;1999.90;999.90;;;;;;;26.24;84.17;97980.94;4989857;28;20121;-76
2023/06/21 06:16:40;;;;;;;1999.90;999.90;;;;;;;26.33;82.36;97978.56;4990558;28;20617;-77
2023/06/21 06:19:05;;;;;;;1999.90;999.90;;;;;;;26.40;81.72;97978.56;4992755;28;20030;-76
2023/06/21 06:21:31;;;;;;;1999.90;999.90;;;;;;;26.52;79.25;97982.97;4992129;28;20268;-77
2023/06/21 06:23:56;;;;;;;1999.90;999.90;;;;;;;26.57;77.08;97983.38;4989801;28;20129;-76
2023/06/21 06:26:24;;;;;;;1999.90;999.90;;;;;;;26.56;77.84;97983.78;4990186;28;20030;-80
2023/06/21 06:28:50;;;;;;;1999.90;999.90;;;;;;;26.63;76.84;97988.63;4989107;28;20026;-76
2023/06/21 06:31:19;;;;;;;1999.90;999.90;;;;;;;26.71;76.59;97995.81;4992717;28;20056;-75
2023/06/21 06:33:45;;;;;;;1999.90;999.90;;;;;;;26.83;74.95;98001.06;4992501;28;20037;-74
2023/06/21 06:36:10;;;;;;;1999.90;999.90;;;;;;;26.88;74.49;97990.22;4993383;28;20058;-74
2023/06/21 06:38:36;;;;;;;1999.90;999.90;;;;;;;26.95;72.26;97992.22;4991586;28;20030;-75
2023/06/21 06:41:01;;;;;;;1999.90;999.90;;;;;;;27.15;67.85;97987.81;4993264;28;20034;-76
2023/06/21 06:43:26;;;;;;;1999.90;999.90;;;;;;;27.23;66.14;97992.19;4993838;28;20026;-74
2023/06/21 06:45:52;;;;;;;1999.90;999.90;;;;;;;27.31;65.77;97999.41;4993876;28;20505;-76
2023/06/21 06:48:17;;;;;;;1999.90;999.90;;;;;;;27.42;66.57;97991.75;4993807;28;20532;-75
2023/06/21 06:50:43;;;;;;;1999.90;999.90;;;;;;;27.55;65.83;97992.94;4993485;28;20117;-74
2023/06/21 06:53:08;;;;;;;1999.90;999.90;;;;;;;27.53;63.10;97997.38;5000536;28;20928;-76
2023/06/21 06:55:34;;;;;;;1999.90;999.90;;;;;;;27.39;60.47;97998.19;5004549;28;20501;-73
2023/06/21 06:58:01;;;;;;;1999.90;999.90;;;;;;;27.31;59.79;98009.84;5001864;28;20084;-75
2023/06/21 07:00:26;;;;;;;1999.90;999.90;;;;;;;27.44;58.49;98008.25;5002323;28;20030;-74
2023/06/21 07:02:56;;;;;;;1999.90;999.90;;;;;;;27.45;58.06;98004.22;5001523;28;20049;-74
2023/06/21 07:05:22;;;;;;;1999.90;999.90;;;;;;;27.38;58.17;98004.22;4999329;28;20038;-75
2023/06/21 07:07:48;;;;;;;1999.90;999.90;;;;;;;27.43;58.14;97996.19;4999433;28;20053;-75
2023/06/21 07:10:13;;;;;;;1999.90;999.90;;;;;;;27.63;59.00;97997.31;5003224;28;20034;-74
2023/06/21 07:12:39;;;;;;;1999.90;999.90;;;;;;;27.73;61.10;97997.69;5002032;28;20072;-74
2023/06/21 07:15:04;;;;;;;1999.90;999.90;;;;;;;27.91;59.51;98004.84;4999941;28;20030;-74
2023/06/21 07:17:30;;;;;;;1999.90;999.90;;;;;;;28.05;57.28;97998.38;4991991;28;20502;-79
2023/06/21 07:19:55;;;;;;;1999.90;999.90;;;;;;;28.15;56.44;98003.16;5000723;28;20019;-78
2023/06/21 07:22:20;;;;;;;1999.90;999.90;;;;;;;28.18;57.53;98003.16;4985005;28;20018;-78
2023/06/21 07:24:46;;;;;;;1999.90;999.90;;;;;;;28.31;57.50;97995.03;5004031;28;20391;-77
2023/06/21 07:27:12;;;;;;;1999.90;999.90;;;;;;;28.37;55.84;98013.09;4994774;28;20411;-75
2023/06/21 07:29:37;;;;;;;1999.90;999.90;;;;;;;28.28;55.02;98003.50;4989592;28;20034;-79
2023/06/21 07:32:03;;;;;;;1999.90;999.90;;;;;;;28.23;55.79;97996.25;4991207;28;20535;-78
2023/06/21 07:34:29;;;;;;;1999.90;999.90;;;;;;;28.26;55.22;97995.44;4992802;28;20033;-79
2023/06/21 07:36:55;;;;;;;1999.90;999.90;;;;;;;28.28;54.61;97997.84;4991766;28;20038;-77
2023/06/21 07:39:20;;;;;;;1999.90;999.90;;;;;;;28.30;55.10;97998.25;4996684;28;20076;-82
2023/06/21 07:41:45;;;;;;;1999.90;999.90;;;;;;;28.52;55.08;97994.88;5000225;28;20080;-85
2023/06/21 07:44:11;;;;;;;1999.90;999.90;;;;;;;28.78;55.85;98001.16;5006012;28;20030;-84
2023/06/21 07:46:36;;;;;;;1999.90;999.90;;;;;;;28.85;54.86;98001.88;5005483;28;20030;-82
2023/06/21 07:49:01;;;;;;;1999.90;999.90;;;;;;;28.89;53.86;97996.22;5000489;28;20030;-83
2023/06/21 07:51:27;;;;;;;1999.90;999.90;;;;;;;29.18;52.24;98006.03;5002459;28;20213;-83
2023/06/21 07:53:52;;;;;;;1999.90;999.90;;;;;;;29.35;51.24;97999.44;5000815;28;20091;-75
2023/06/21 07:56:17;;;;;;;1999.90;999.90;;;;;;;29.42;51.52;98001.38;5002822;28;20030;-80
2023/06/21 07:58:43;;;;;;;1999.90;999.90;;;;;;;29.51;51.35;98005.28;4977665;28;20467;-73
2023/06/21 08:01:09;;;;;;;1999.90;999.90;;;;;;;29.77;50.38;98004.59;4992595;28;20054;-74
2023/06/21 08:03:34;;;;;;;1999.90;999.90;;;;;;;30.04;50.84;98009.53;4992580;28;20065;-74
2023/06/21 08:05:59;;;;;;;1999.90;999.90;;;;;;;30.44;49.72;98004.97;4993550;28;20456;-73
2023/06/21 08:08:25;;;;;;;1999.90;999.90;;;;;;;30.97;47.88;98010.63;4992592;28;20514;-73
2023/06/21 08:10:50;;;;;;;1999.90;999.90;;;;;;;31.25;46.93;98014.97;4992429;28;20280;-73
2023/06/21 08:13:22;;;;;;;1999.90;999.90;;;;;;;30.94;46.86;98010.63;4992331;28;20034;-73
2023/06/21 08:15:48;;;;;;;1999.90;999.90;;;;;;;31.05;46.80;98028.22;4992240;28;20026;-72
2023/06/21 08:18:13;;;;;;;1999.90;999.90;;;;;;;30.95;47.36;98024.34;4992135;28;20108;-72
2023/06/21 08:20:40;;;;;;;1999.90;999.90;;;;;;;30.92;47.97;98015.94;4992094;28;20407;-76
2023/06/21 08:23:06;;;;;;;1999.90;999.90;;;;;;;31.00;47.28;98011.78;4992041;28;20053;-72
2023/06/21 08:25:32;;;;;;;1999.90;999.90;;;;;;;31.11;46.71;98018.84;4990629;28;20068;-72
2023/06/21 08:27:57;;;;;;;1999.90;999.90;;;;;;;31.35;46.85;98016.81;4990476;28;20133;-73
2023/06/21 08:30:22;;;;;;;1999.90;999.90;;;;;;;31.65;46.35;98018.69;4992046;28;20403;-73
2023/06/21 08:32:48;;;;;;;1999.90;999.90;;;;;;;31.94;45.46;98016.09;4991905;28;20338;-72
2023/06/21 08:35:13;;;;;;;1999.90;999.90;;;;;;;32.20;45.33;98024.44;4990640;28;20403;-72
2023/06/21 08:37:39;;;;;;;1999.90;999.90;;;;;;;32.31;43.58;98012.88;4991530;28;20061;-71
2023/06/21 08:40:07;;;;;;;1999.90;999.90;;;;;;;31.90;43.98;98018.19;4991574;28;20057;-72
2023/06/21 08:42:32;;;;;;;1999.90;999.90;;;;;;;31.89;45.35;98013.78;4991553;28;20018;-72
2023/06/21 08:44:58;;;;;;;1999.90;999.90;;;;;;;32.12;44.38;98000.34;4990329;28;20038;-73
2023/06/21 08:47:28;;;;;;;1999.90;999.90;;;;;;;31.62;44.57;98006.22;4991705;28;20037;-72
2023/06/21 08:49:57;;;;;;;1999.90;999.90;;;;;;;31.70;44.67;98002.00;4962517;28;20022;-72
2023/06/21 08:52:24;;;;;;;1999.90;999.90;;;;;;;31.98;44.66;98006.31;4971971;28;20031;-73
2023/06/21 08:54:52;;;;;;;1999.90;999.90;;;;;;;31.87;44.01;98010.56;4978404;28;20030;-73
2023/06/21 08:57:22;;;;;;;1999.90;999.90;;;;;;;31.61;44.94;97998.94;4991567;28;20029;-73
2023/06/21 09:00:02;;;;;;;1999.90;999.90;;;;;;;31.58;45.16;97994.16;4991288;28;20502;-73
2023/06/21 09:02:48;;;;;;;1999.90;999.90;;;;;;;31.74;45.23;97999.91;4991282;28;20057;-72
2023/06/21 09:05:20;;;;;;;1999.90;999.90;;;;;;;31.92;44.56;98012.91;4974066;28;20045;-72
2023/06/21 09:07:46;;;;;;;1999.90;999.90;;;;;;;31.83;44.33;98005.78;4989018;28;20480;-72
2023/06/21 09:10:15;;;;;;;1999.90;999.90;;;;;;;31.75;43.68;98007.16;4972032;28;20157;-73
2023/06/21 09:12:43;;;;;;;1999.90;999.90;;;;;;;31.34;44.28;98006.72;4991107;28;20031;-73
2023/06/21 09:15:09;;;;;;;1999.90;999.90;;;;;;;31.52;44.58;97995.91;4973613;28;20034;-72
2023/06/21 09:17:36;;;;;;;1999.90;999.90;;;;;;;31.62;44.57;98003.38;4990975;28;20603;-73
2023/06/21 09:20:02;;;;;;;1999.90;999.90;;;;;;;31.87;44.36;98002.06;4972990;28;20113;-74
2023/06/21 09:22:30;;;;;;;1999.90;999.90;;;;;;;31.87;42.73;98005.72;4990858;28;20030;-73
2023/06/21 09:24:56;;;;;;;1999.90;999.90;;;;;;;31.75;43.38;97998.69;4990730;28;20030;-72
2023/06/21 09:27:21;;;;;;;1999.90;999.90;;;;;;;31.88;43.13;97996.00;4973593;28;20018;-72
2023/06/21 09:29:47;;;;;;;1999.90;999.90;;;;;;;32.09;41.79;98006.09;4990631;28;20573;-72
2023/06/21 09:32:12;;;;;;;1999.90;999.90;;;;;;;31.48;42.23;97995.16;4990910;28;20050;-72
2023/06/21 09:34:38;;;;;;;1999.90;999.90;;;;;;;31.46;43.30;97997.59;4973254;28;20023;-73
2023/06/21 09:37:03;;;;;;;1999.90;999.90;;;;;;;31.56;44.12;97990.16;4990636;28;20050;-72
2023/06/21 09:39:28;;;;;;;1999.90;999.90;;;;;;;31.83;43.85;97993.66;4990764;28;20279;-72
2023/06/21 09:41:54;;;;;;;1999.90;999.90;;;;;;;31.90;42.22;97999.19;4990722;28;20393;-79
2023/06/21 09:44:20;;;;;;;1999.90;999.90;;;;;;;32.09;41.21;97995.56;4990453;28;20291;-78
2023/06/21 09:46:49;;;;;;;1999.90;999.90;;;;;;;32.35;40.62;97991.75;4973158;28;20045;-76
2023/06/21 09:49:19;;;;;;;1999.90;999.90;;;;;;;32.53;40.06;97991.34;4972934;28;20506;-78
2023/06/21 09:51:47;;;;;;;1999.90;999.90;;;;;;;32.63;38.83;97998.00;4974119;28;20054;-77
2023/06/21 09:54:13;;;;;;;1999.90;999.90;;;;;;;32.69;38.40;97988.56;4991593;28;20097;-76
2023/06/21 09:56:39;;;;;;;1999.90;999.90;;;;;;;32.71;39.41;97997.41;4992454;28;20109;-77
2023/06/21 09:59:20;;;;;;;1999.90;999.90;;;;;;;32.87;39.74;97994.56;4994491;28;20081;-75
2023/06/21 10:01:49;;;;;;;1999.90;999.90;;;;;;;33.00;40.14;97985.34;4976796;28;20123;-75
2023/06/21 10:04:16;;;;;;;1999.90;999.90;;;;;;;32.82;38.33;97989.44;4976244;28;20139;-75
2023/06/21 10:06:51;;;;;;;1999.90;999.90;;;;;;;32.53;40.26;97993.38;4976656;28;20026;-76
2023/06/21 10:09:18;;;;;;;1999.90;999.90;;;;;;;32.42;40.33;97990.78;5002091;28;20038;-77
2023/06/21 10:11:44;;;;;;;1999.90;999.90;;;;;;;32.37;41.22;97994.13;4997648;28;20034;-77
2023/06/21 10:14:23;;;;;;;1999.90;999.90;;;;;;;32.37;40.65;97999.78;4990519;28;20096;-78
2023/06/21 10:16:53;;;;;;;1999.90;999.90;;;;;;;32.43;40.10;97992.38;4987934;28;20030;-77
2023/06/21 10:19:24;;;;;;;1999.90;999.90;;;;;;;32.48;39.63;97991.88;4972951;28;20026;-76
2023/06/21 10:21:57;;;;;;;1999.90;999.90;;;;;;;32.57;39.38;97994.91;4972721;28;20077;-76
2023/06/21 10:24:26;;;;;;;1999.90;999.90;;;;;;;32.45;39.25;98001.25;4972734;28;20033;-76
2023/06/21 10:26:52;;;;;;;1999.90;999.90;;;;;;;32.43;38.73;98002.91;4972742;28;20026;-76
2023/06/21 10:29:18;;;;;;;1999.90;999.90;;;;;;;32.63;37.78;97995.97;4972815;28;20026;-78
2023/06/21 10:31:45;;;;;;;1999.90;999.90;;;;;;;32.80;36.75;98003.25;4990341;28;20403;-78
2023/06/21 10:34:16;;;;;;;1999.90;999.90;;;;;;;33.05;35.92;98005.44;4972834;28;20070;-76
2023/06/21 10:36:46;;;;;;;1999.90;999.90;;;;;;;33.13;35.62;98004.06;4989054;28;20098;-76
2023/06/21 10:39:12;;;;;;;1999.90;999.90;;;;;;;33.26;35.17;98016.31;4990486;28;20030;-78
2023/06/21 10:41:39;;;;;;;1999.90;999.90;;;;;;;33.42;34.47;98016.25;4981045;28;20014;-77
2023/06/21 10:44:05;;;;;;;1999.90;999.90;;;;;;;33.34;34.69;98012.03;4980456;28;20380;-79
2023/06/21 10:46:32;;;;;;;1999.90;999.90;;;;;;;33.16;34.90;98006.03;4970456;28;20019;-85
2023/06/21 10:48:59;;;;;;;1999.90;999.90;;;;;;;33.13;35.51;98006.13;4977063;28;20419;-83
2023/06/21 10:51:25;;;;;;;1999.90;999.90;;;;;;;33.05;35.21;98008.28;4972177;28;20477;-81